createdAt,value
2018-03-30T00:02:27.746Z,100191.30
2018-03-30T00:04:55.907Z,100187.53
2018-03-30T00:07:23.978Z,100184.92
2018-03-30T00:09:57.777Z,100184.98
2018-03-30T00:12:25.893Z,100184.39
2018-03-30T00:14:54.032Z,100187.93
2018-03-30T00:17:22.165Z,100182.58
2018-03-30T00:19:50.292Z,100183.78
2018-03-30T00:22:18.411Z,100180.30
2018-03-30T00:24:46.529Z,100175.69
2018-03-30T00:27:14.831Z,100178.42
2018-03-30T00:29:42.933Z,100178.56
2018-03-30T00:32:11.055Z,100172.30
2018-03-30T00:34:39.175Z,100162.95
2018-03-30T00:37:07.300Z,100166.80
2018-03-30T00:39:35.479Z,100167.05
2018-03-30T00:42:03.584Z,100166.84
2018-03-30T00:44:31.707Z,100163.25
2018-03-30T00:46:59.834Z,100172.02
2018-03-30T00:49:27.952Z,100161.46
2018-03-30T00:51:56.084Z,100162.27
2018-03-30T00:54:24.220Z,100158.90
2018-03-30T00:56:52.333Z,100168.77
2018-03-30T00:59:20.441Z,100156.88
2018-03-30T01:01:48.780Z,100160.23
2018-03-30T01:04:16.906Z,100153.12
2018-03-30T01:06:45.039Z,100151.59
2018-03-30T01:09:13.178Z,100154.91
2018-03-30T01:11:41.318Z,100154.93
2018-03-30T01:14:09.441Z,100152.87
2018-03-30T01:16:37.576Z,100146.61
2018-03-30T01:19:05.768Z,100148.38
2018-03-30T01:21:34.278Z,100139.27
2018-03-30T01:24:02.403Z,100143.30
2018-03-30T01:26:30.549Z,100143.91
2018-03-30T01:28:58.679Z,100141.91
2018-03-30T01:31:26.832Z,100141.00
2018-03-30T01:33:55.043Z,100140.60
2018-03-30T01:36:23.172Z,100135.24
2018-03-30T01:38:51.311Z,100133.91
2018-03-30T01:41:19.490Z,100130.03
2018-03-30T01:43:47.628Z,100128.16
2018-03-30T01:46:15.754Z,100127.78
2018-03-30T01:48:43.863Z,100122.58
2018-03-30T01:51:12.007Z,100123.20
2018-03-30T01:53:40.132Z,100124.38
2018-03-30T01:56:08.257Z,100117.67
2018-03-30T01:58:36.413Z,100112.74
2018-03-30T02:01:04.509Z,100108.44
2018-03-30T02:03:32.648Z,100107.88
2018-03-30T02:06:00.764Z,100105.52
2018-03-30T02:08:28.884Z,100096.62
2018-03-30T02:10:57.033Z,100099.20
2018-03-30T02:13:25.142Z,100089.84
2018-03-30T02:15:53.268Z,100093.21
2018-03-30T02:18:21.562Z,100083.94
2018-03-30T02:20:49.666Z,100087.28
2018-03-30T02:23:17.781Z,100080.06
2018-03-30T02:25:45.923Z,100079.58
2018-03-30T02:28:14.036Z,100078.02
2018-03-30T02:30:42.189Z,100075.52
2018-03-30T02:33:10.308Z,100070.52
2018-03-30T02:35:38.451Z,100065.51
2018-03-30T02:38:06.559Z,100066.80
2018-03-30T02:40:34.689Z,100067.28
2018-03-30T02:43:02.834Z,100068.38
2018-03-30T02:45:31.212Z,100064.02
2018-03-30T02:47:59.393Z,100062.72
2018-03-30T02:50:27.531Z,100060.80
2018-03-30T02:52:55.662Z,100060.05
2018-03-30T02:55:23.830Z,100062.75
2018-03-30T02:57:51.950Z,100065.59
2018-03-30T03:00:20.092Z,100067.78
2018-03-30T03:02:48.212Z,100060.31
2018-03-30T03:05:16.369Z,100066.21
2018-03-30T03:07:44.541Z,100060.27
2018-03-30T03:10:12.649Z,100061.55
2018-03-30T03:12:40.813Z,100065.84
2018-03-30T03:15:08.944Z,100071.27
2018-03-30T03:17:37.090Z,100071.11
2018-03-30T03:20:05.228Z,100071.52
2018-03-30T03:22:33.344Z,100072.66
2018-03-30T03:25:01.534Z,100071.40
2018-03-30T03:27:29.693Z,100074.50
2018-03-30T03:29:57.805Z,100080.47
2018-03-30T03:32:25.940Z,100084.96
2018-03-30T03:34:54.070Z,100077.20
2018-03-30T03:37:22.204Z,100079.30
2018-03-30T03:39:50.320Z,100076.23
2018-03-30T03:42:18.460Z,100066.47
2018-03-30T03:44:46.574Z,100068.50
2018-03-30T03:47:14.704Z,100067.55
2018-03-30T03:49:42.826Z,100064.49
2018-03-30T03:52:10.941Z,100062.06
2018-03-30T03:54:39.082Z,100065.49
2018-03-30T03:57:07.214Z,100064.29
2018-03-30T03:59:35.355Z,100066.21
2018-03-30T04:02:03.466Z,100066.88
2018-03-30T04:04:31.645Z,100055.20
2018-03-30T04:06:59.724Z,100055.04
2018-03-30T04:09:27.846Z,100056.89
2018-03-30T04:11:55.979Z,100058.45
2018-03-30T04:14:27.044Z,100044.88
2018-03-30T04:16:55.177Z,100056.57
2018-03-30T04:19:23.285Z,100051.47
2018-03-30T04:21:51.425Z,100051.07
2018-03-30T04:24:19.533Z,100050.52
2018-03-30T04:26:47.684Z,100050.63
2018-03-30T04:29:15.859Z,100060.72
2018-03-30T04:31:43.956Z,100052.89
2018-03-30T04:34:12.100Z,100049.12
2018-03-30T04:36:40.214Z,100050.28
2018-03-30T04:39:08.344Z,100053.69
2018-03-30T04:41:36.467Z,100052.59
2018-03-30T04:44:04.618Z,100048.84
2018-03-30T04:46:32.748Z,100039.80
2018-03-30T04:49:00.871Z,100050.17
2018-03-30T04:51:29.005Z,100043.87
2018-03-30T04:53:57.164Z,100040.80
2018-03-30T04:56:25.294Z,100030.61
2018-03-30T04:58:53.412Z,100033.06
2018-03-30T05:01:21.522Z,100036.39
2018-03-30T05:03:49.662Z,100034.55
2018-03-30T05:06:17.790Z,100035.14
2018-03-30T05:08:45.920Z,100032.72
2018-03-30T05:11:14.056Z,100039.52
2018-03-30T05:13:42.184Z,100040.50
2018-03-30T05:16:10.318Z,100048.72
2018-03-30T05:18:38.444Z,100047.00
2018-03-30T05:21:06.585Z,100049.50
2018-03-30T05:23:34.689Z,100046.47
2018-03-30T05:26:02.881Z,100052.27
2018-03-30T05:28:31.012Z,100049.61
2018-03-30T05:30:59.137Z,100052.27
2018-03-30T05:33:27.534Z,100046.48
2018-03-30T05:35:55.656Z,100053.08
2018-03-30T05:38:23.781Z,100054.70
2018-03-30T05:40:51.882Z,100054.87
2018-03-30T05:43:20.043Z,100046.08
2018-03-30T05:45:48.169Z,100042.53
2018-03-30T05:48:16.293Z,100043.61
2018-03-30T05:50:44.426Z,100034.02
2018-03-30T05:53:12.575Z,100042.01
2018-03-30T05:55:40.703Z,100043.36
2018-03-30T05:58:08.828Z,100038.10
2018-03-30T06:00:36.952Z,100041.01
2018-03-30T06:03:05.120Z,100040.96
2018-03-30T06:05:33.249Z,100031.41
2018-03-30T06:08:05.175Z,100036.66
2018-03-30T06:10:33.290Z,100031.73
2018-03-30T06:13:01.429Z,100035.33
2018-03-30T06:15:29.552Z,100034.08
2018-03-30T06:17:57.686Z,100031.81
2018-03-30T06:20:26.616Z,100028.08
2018-03-30T06:22:54.704Z,100021.61
2018-03-30T06:25:22.858Z,100019.72
2018-03-30T06:27:51.003Z,100014.77
2018-03-30T06:30:19.162Z,100007.91
2018-03-30T06:32:47.361Z,100008.36
2018-03-30T06:35:15.531Z,100004.55
2018-03-30T06:37:43.662Z,100006.00
2018-03-30T06:40:11.800Z,100000.33
2018-03-30T06:42:40.936Z,100007.43
2018-03-30T06:45:09.177Z,100008.58
2018-03-30T06:47:37.308Z,100006.17
2018-03-30T06:50:05.455Z,100006.10
2018-03-30T06:52:33.568Z,99999.19
2018-03-30T06:55:01.695Z,99998.22
2018-03-30T06:57:29.790Z,99992.63
2018-03-30T06:59:57.945Z,99995.13
2018-03-30T07:02:28.996Z,99979.95
2018-03-30T07:05:00.784Z,99978.06
2018-03-30T07:07:28.906Z,99992.00
2018-03-30T07:09:57.005Z,99996.91
2018-03-30T07:12:25.133Z,99992.27
2018-03-30T07:14:53.252Z,99993.17
2018-03-30T07:17:21.405Z,99985.50
2018-03-30T07:19:49.548Z,99991.73
2018-03-30T07:22:17.704Z,99983.84
2018-03-30T07:24:45.820Z,99979.05
2018-03-30T07:27:13.953Z,99977.70
2018-03-30T07:29:42.090Z,99969.80
2018-03-30T07:32:10.238Z,99973.80
2018-03-30T07:34:38.335Z,99974.66
2018-03-30T07:37:06.504Z,99964.52
2018-03-30T07:39:34.583Z,99971.53
2018-03-30T07:42:02.696Z,99971.81
2018-03-30T07:44:30.813Z,99969.52
2018-03-30T07:46:58.961Z,99971.91
2018-03-30T07:49:27.090Z,99977.01
2018-03-30T07:51:55.261Z,99965.07
2018-03-30T07:54:23.390Z,99962.32
2018-03-30T07:56:51.563Z,99946.59
2018-03-30T07:59:19.768Z,99951.21
2018-03-30T08:01:47.934Z,99949.15
2018-03-30T08:04:16.038Z,99936.36
2018-03-30T08:06:46.012Z,99940.47
2018-03-30T08:09:14.214Z,99939.28
2018-03-30T08:11:42.333Z,99938.19
2018-03-30T08:14:10.470Z,99936.81
2018-03-30T08:16:38.590Z,99932.90
2018-03-30T08:19:06.710Z,99932.41
2018-03-30T08:21:37.864Z,99928.34
2018-03-30T08:24:05.999Z,99923.21
2018-03-30T08:26:34.139Z,99933.21
2018-03-30T08:29:02.294Z,99927.45
2018-03-30T08:31:30.461Z,99918.64
2018-03-30T08:33:58.583Z,99913.77
2018-03-30T08:36:26.716Z,99915.85
2018-03-30T08:38:54.817Z,99913.88
2018-03-30T08:41:22.943Z,99908.20
2018-03-30T08:43:51.097Z,99915.12
2018-03-30T08:46:19.261Z,99906.95
2018-03-30T08:48:47.484Z,99905.41
2018-03-30T08:51:15.614Z,99901.10
2018-03-30T08:53:43.733Z,99891.26
2018-03-30T08:56:11.868Z,99899.95
2018-03-30T08:58:40.006Z,99895.89
2018-03-30T09:01:08.132Z,99889.57
2018-03-30T09:03:36.267Z,99891.58
2018-03-30T09:06:05.301Z,99882.75
2018-03-30T09:08:33.425Z,99872.98
2018-03-30T09:11:01.546Z,99877.29
2018-03-30T09:13:29.682Z,99870.06
2018-03-30T09:15:57.790Z,99865.94
2018-03-30T09:18:25.909Z,99857.63
2018-03-30T09:20:54.090Z,99862.23
2018-03-30T09:23:22.215Z,99859.19
2018-03-30T09:25:50.351Z,99865.52
2018-03-30T09:28:18.636Z,99869.25
2018-03-30T09:30:46.799Z,99851.86
2018-03-30T09:33:20.643Z,99844.31
2018-03-30T09:35:48.768Z,99850.94
2018-03-30T09:38:16.902Z,99842.49
2018-03-30T09:40:45.018Z,99846.25
2018-03-30T09:43:13.157Z,99846.83
2018-03-30T09:45:41.270Z,99832.98
2018-03-30T09:48:09.427Z,99833.48
2018-03-30T09:50:37.534Z,99823.73
2018-03-30T09:53:05.686Z,99823.22
2018-03-30T09:55:33.963Z,99817.41
2018-03-30T09:58:02.091Z,99809.43
2018-03-30T10:00:30.267Z,99806.00
2018-03-30T10:03:08.280Z,99802.45
2018-03-30T10:05:36.423Z,99801.45
2018-03-30T10:08:04.539Z,99798.15
2018-03-30T10:10:32.761Z,99804.20
2018-03-30T10:13:01.110Z,99802.55
2018-03-30T10:15:29.249Z,99793.92
2018-03-30T10:17:57.387Z,99797.83
2018-03-30T10:20:25.535Z,99788.89
2018-03-30T10:22:53.656Z,99786.75
2018-03-30T10:25:21.789Z,99780.69
2018-03-30T10:27:49.948Z,99781.81
2018-03-30T10:30:18.426Z,99774.68
2018-03-30T10:32:46.640Z,99777.05
2018-03-30T10:35:14.760Z,99772.67
2018-03-30T10:37:42.880Z,99766.61
2018-03-30T10:40:11.016Z,99752.27
2018-03-30T10:42:39.155Z,99758.20
2018-03-30T10:45:07.278Z,99744.67
2018-03-30T10:47:35.403Z,99750.37
2018-03-30T10:50:03.543Z,99733.03
2018-03-30T10:52:31.647Z,99727.83
2018-03-30T10:54:59.771Z,99722.77
2018-03-30T10:57:27.911Z,99729.27
2018-03-30T10:59:56.021Z,99711.71
2018-03-30T11:02:24.179Z,99720.01
2018-03-30T11:04:52.335Z,99715.52
2018-03-30T11:07:20.449Z,99715.45
2018-03-30T11:09:48.610Z,99708.11
2018-03-30T11:12:16.730Z,99698.66
2018-03-30T11:14:44.844Z,99698.13
2018-03-30T11:17:12.991Z,99679.13
2018-03-30T11:19:41.126Z,99672.10
2018-03-30T11:22:09.282Z,99665.34
2018-03-30T11:24:37.625Z,99667.95
2018-03-30T11:27:05.772Z,99653.06
2018-03-30T11:29:33.908Z,99639.92
2018-03-30T11:32:02.060Z,99634.38
2018-03-30T11:34:30.187Z,99627.32
2018-03-30T11:36:58.400Z,99623.18
2018-03-30T11:39:31.943Z,99612.32
2018-03-30T11:42:00.129Z,99596.81
2018-03-30T11:44:28.279Z,99582.94
2018-03-30T11:46:56.482Z,99574.39
2018-03-30T11:49:24.635Z,99570.30
2018-03-30T11:51:52.764Z,99562.69
2018-03-30T11:54:20.891Z,99558.34
2018-03-30T11:56:49.018Z,99555.22
2018-03-30T11:59:17.151Z,99567.36
2018-03-30T12:01:45.295Z,99557.66
2018-03-30T12:04:13.492Z,99561.69
2018-03-30T12:06:41.628Z,99574.05
2018-03-30T12:09:09.781Z,99592.89
2018-03-30T12:11:37.919Z,99583.84
2018-03-30T12:14:06.054Z,99584.13
2018-03-30T12:16:34.157Z,99583.59
2018-03-30T12:19:02.320Z,99590.84
2018-03-30T12:21:30.578Z,99592.77
2018-03-30T12:23:58.699Z,99592.62
2018-03-30T12:26:26.821Z,99584.91
2018-03-30T12:28:54.964Z,99596.14
2018-03-30T12:31:23.153Z,99566.70
2018-03-30T12:33:51.420Z,99571.91
2018-03-30T12:36:19.542Z,99572.86
2018-03-30T12:38:47.666Z,99563.79
2018-03-30T12:41:15.798Z,99558.23
2018-03-30T12:43:43.913Z,99554.32
2018-03-30T12:46:12.025Z,99550.46
2018-03-30T12:48:40.158Z,99554.20
2018-03-30T12:51:08.288Z,99553.84
2018-03-30T12:53:36.488Z,99552.28
2018-03-30T12:56:04.649Z,99552.55
2018-03-30T12:58:32.803Z,99541.25
2018-03-30T13:01:00.926Z,99534.03
2018-03-30T13:03:29.060Z,99533.09
2018-03-30T13:05:57.183Z,99521.39
2018-03-30T13:08:25.327Z,99522.70
2018-03-30T13:10:53.471Z,99530.81
2018-03-30T13:13:21.692Z,99522.60
2018-03-30T13:15:49.851Z,99525.56
2018-03-30T13:18:17.960Z,99521.98
2018-03-30T13:20:46.111Z,99525.33
2018-03-30T13:23:15.248Z,99512.73
2018-03-30T13:25:43.370Z,99516.97
2018-03-30T13:28:11.565Z,99512.09
2018-03-30T13:30:39.691Z,99510.03
2018-03-30T13:33:07.822Z,99512.45
2018-03-30T13:35:35.990Z,99508.85
2018-03-30T13:38:04.110Z,99505.09
2018-03-30T13:40:32.278Z,99499.83
2018-03-30T13:43:00.409Z,99497.26
2018-03-30T13:45:28.543Z,99491.98
2018-03-30T13:47:56.682Z,99490.67
2018-03-30T13:50:30.417Z,99479.09
2018-03-30T13:53:08.989Z,99477.33
2018-03-30T13:55:37.837Z,99466.61
2018-03-30T13:58:24.593Z,99477.16
2018-03-30T14:00:52.724Z,99473.79
2018-03-30T14:03:29.382Z,99460.42
2018-03-30T14:06:17.374Z,99463.80
2018-03-30T14:08:48.248Z,99455.95
2018-03-30T14:11:16.372Z,99448.42
2018-03-30T14:13:44.507Z,99445.08
2018-03-30T14:16:19.014Z,99442.47
2018-03-30T14:18:47.870Z,99433.92
2018-03-30T14:21:27.849Z,99437.97
2018-03-30T14:23:56.700Z,99433.98
2018-03-30T14:26:27.361Z,99427.59
2018-03-30T14:31:54.451Z,99424.09
2018-03-30T14:34:32.417Z,99430.84
2018-03-30T14:37:16.051Z,99433.28
2018-03-30T14:39:45.742Z,99433.83
2018-03-30T14:42:16.661Z,99432.84
2018-03-30T14:44:50.209Z,99431.05
2018-03-30T14:47:25.375Z,99436.48
2018-03-30T14:49:55.316Z,99424.80
2018-03-30T14:52:32.062Z,99432.41
2018-03-30T14:55:02.878Z,99422.00
2018-03-30T14:57:34.694Z,99427.23
2018-03-30T15:00:08.306Z,99429.88
2018-03-30T15:02:40.195Z,99421.02
2018-03-30T15:05:11.214Z,99419.53
2018-03-30T15:10:53.085Z,99406.34
2018-03-30T15:13:26.710Z,99409.02
2018-03-30T15:15:57.772Z,99406.23
2018-03-30T15:18:28.711Z,99410.03
2018-03-30T15:21:02.246Z,99402.27
2018-03-30T15:23:33.769Z,99399.23
2018-03-30T15:26:02.504Z,99401.84
2018-03-30T15:28:32.442Z,99399.69
2018-03-30T15:31:05.143Z,99395.44
2018-03-30T15:36:36.518Z,99402.25
2018-03-30T15:39:05.439Z,99396.45
2018-03-30T15:41:34.293Z,99393.86
2018-03-30T15:44:02.497Z,99389.36
2018-03-30T15:46:32.112Z,99379.65
2018-03-30T15:49:00.244Z,99376.47
2018-03-30T15:51:30.871Z,99373.84
2018-03-30T15:53:58.465Z,99375.87
2018-03-30T15:56:39.412Z,99372.12
2018-03-30T15:59:07.564Z,99366.94
2018-03-30T16:01:35.893Z,99364.72
2018-03-30T16:04:04.054Z,99357.09
2018-03-30T16:06:32.214Z,99362.34
2018-03-30T16:09:00.341Z,99363.80
2018-03-30T16:11:31.285Z,99357.27
2018-03-30T16:13:59.571Z,99352.40
2018-03-30T16:16:27.815Z,99355.66
2018-03-30T16:18:56.079Z,99359.02
2018-03-30T16:21:23.699Z,99357.42
2018-03-30T16:23:51.260Z,99354.34
2018-03-30T16:26:18.863Z,99351.55
2018-03-30T16:28:46.478Z,99350.23
2018-03-30T16:31:14.034Z,99348.83
2018-03-30T16:33:41.642Z,99359.14
2018-03-30T16:36:09.880Z,99362.80
2018-03-30T16:38:37.457Z,99369.41
2018-03-30T16:41:05.049Z,99371.33
2018-03-30T16:43:32.628Z,99372.28
2018-03-30T16:46:00.233Z,99373.53
2018-03-30T16:48:27.805Z,99379.15
2018-03-30T16:50:55.388Z,99378.49
2018-03-30T16:53:23.017Z,99380.73
2018-03-30T16:55:50.598Z,99383.45
2018-03-30T16:58:18.190Z,99377.94
2018-03-30T17:00:45.788Z,99378.66
2018-03-30T17:03:13.383Z,99388.52
2018-03-30T17:05:41.000Z,99381.39
2018-03-30T17:08:08.604Z,99383.61
2018-03-30T17:10:36.234Z,99380.81
2018-03-30T17:13:03.816Z,99384.97
2018-03-30T17:15:31.399Z,99378.17
2018-03-30T17:17:59.030Z,99376.53
2018-03-30T17:20:26.628Z,99373.91
2018-03-30T17:22:54.219Z,99378.02
2018-03-30T17:25:21.814Z,99373.55
2018-03-30T17:27:49.425Z,99369.94
2018-03-30T17:30:17.054Z,99368.73
2018-03-30T17:32:44.707Z,99366.59
2018-03-30T17:35:12.399Z,99363.86
2018-03-30T17:37:40.061Z,99360.58
2018-03-30T17:40:07.716Z,99362.57
2018-03-30T17:42:35.377Z,99356.59
2018-03-30T17:45:03.035Z,99361.39
2018-03-30T17:47:30.750Z,99356.69
2018-03-30T17:49:58.432Z,99362.59
2018-03-30T17:52:26.074Z,99360.27
2018-03-30T17:54:53.670Z,99352.03
2018-03-30T17:57:21.285Z,99360.73
2018-03-30T17:59:48.897Z,99360.06
2018-03-30T18:02:16.609Z,99356.48
2018-03-30T18:04:44.204Z,99345.48
2018-03-30T18:07:14.674Z,99353.30
2018-03-30T18:09:42.778Z,99347.11
2018-03-30T18:12:10.439Z,99345.34
2018-03-30T18:14:38.021Z,99343.17
2018-03-30T18:17:05.619Z,99356.86
2018-03-30T18:19:33.196Z,99351.61
2018-03-30T18:22:00.803Z,99346.27
2018-03-30T18:24:28.402Z,99351.34
2018-03-30T18:26:55.995Z,99352.84
2018-03-30T18:29:23.570Z,99355.36
2018-03-30T18:31:51.142Z,99351.07
2018-03-30T18:34:18.730Z,99350.09
2018-03-30T18:36:46.293Z,99355.84
2018-03-30T18:39:13.880Z,99356.05
2018-03-30T18:41:41.522Z,99357.94
2018-03-30T18:44:09.071Z,99352.73
2018-03-30T18:46:36.660Z,99361.35
2018-03-30T18:49:04.237Z,99363.92
2018-03-30T18:51:31.825Z,99367.55
2018-03-30T18:53:59.457Z,99371.86
2018-03-30T18:56:27.032Z,99373.41
2018-03-30T18:58:54.633Z,99378.83
2018-03-30T19:01:22.283Z,99383.26
2018-03-30T19:03:49.971Z,99382.59
2018-03-30T19:06:17.552Z,99389.22
2018-03-30T19:08:45.188Z,99392.33
2018-03-30T19:11:12.780Z,99406.17
2018-03-30T19:13:40.365Z,99394.15
2018-03-30T19:16:07.925Z,99400.23
2018-03-30T19:18:35.520Z,99399.49
2018-03-30T19:21:03.120Z,99393.61
2018-03-30T19:23:30.687Z,99392.27
2018-03-30T19:25:58.293Z,99384.89
2018-03-30T19:28:25.877Z,99385.82
2018-03-30T19:30:53.450Z,99397.89
2018-03-30T19:33:21.337Z,99393.86
2018-03-30T19:35:48.961Z,99395.82
2018-03-30T19:38:16.524Z,99401.04
2018-03-30T19:40:44.174Z,99404.03
2018-03-30T19:43:11.749Z,99398.84
2018-03-30T19:45:39.326Z,99404.23
2018-03-30T19:48:07.002Z,99404.61
2018-03-30T19:50:34.579Z,99404.30
2018-03-30T19:53:02.177Z,99412.16
2018-03-30T19:55:29.763Z,99406.16
2018-03-30T19:57:57.339Z,99411.30
2018-03-30T20:00:24.910Z,99415.77
2018-03-30T20:02:52.529Z,99417.41
2018-03-30T20:05:20.098Z,99412.33
2018-03-30T20:07:47.695Z,99412.34
2018-03-30T20:10:15.346Z,99418.74
2018-03-30T20:12:42.945Z,99416.94
2018-03-30T20:15:10.531Z,99417.56
2018-03-30T20:17:38.114Z,99421.13
2018-03-30T20:20:05.703Z,99423.33
2018-03-30T20:22:33.301Z,99430.51
2018-03-30T20:25:00.866Z,99433.47
2018-03-30T20:27:28.469Z,99436.31
2018-03-30T20:29:56.054Z,99437.11
2018-03-30T20:32:23.634Z,99438.36
2018-03-30T20:34:51.225Z,99440.02
2018-03-30T20:37:18.811Z,99434.00
2018-03-30T20:39:46.418Z,99436.58
2018-03-30T20:42:14.060Z,99442.38
2018-03-30T20:44:41.613Z,99436.80
2018-03-30T20:47:09.211Z,99444.56
2018-03-30T20:49:36.795Z,99442.52
2018-03-30T20:52:04.403Z,99442.09
2018-03-30T20:54:32.001Z,99443.88
2018-03-30T20:56:59.598Z,99444.59
2018-03-30T20:59:27.170Z,99447.75
2018-03-30T21:01:54.761Z,99449.31
2018-03-30T21:04:22.344Z,99454.13
2018-03-30T21:06:49.922Z,99456.98
2018-03-30T21:09:17.502Z,99459.74
2018-03-30T21:11:45.150Z,99456.77
2018-03-30T21:14:12.760Z,99460.70
2018-03-30T21:16:40.316Z,99459.00
2018-03-30T21:19:07.902Z,99458.90
2018-03-30T21:21:35.929Z,99455.94
2018-03-30T21:24:03.667Z,99455.72
2018-03-30T21:26:31.269Z,99451.37
2018-03-30T21:28:58.872Z,99453.91
2018-03-30T21:31:26.468Z,99458.23
2018-03-30T21:33:54.099Z,99461.09
2018-03-30T21:36:21.730Z,99461.16
2018-03-30T21:38:49.346Z,99460.94
2018-03-30T21:41:16.938Z,99467.48
2018-03-30T21:43:44.528Z,99456.91
2018-03-30T21:46:12.106Z,99458.16
2018-03-30T21:48:39.696Z,99461.99
2018-03-30T21:51:07.290Z,99465.67
2018-03-30T21:53:34.852Z,99466.18
2018-03-30T21:56:02.453Z,99467.13
2018-03-30T21:58:30.044Z,99468.05
2018-03-30T22:00:57.639Z,99470.83
2018-03-30T22:03:25.225Z,99479.92
2018-03-30T22:05:52.801Z,99485.10
2018-03-30T22:08:20.370Z,99476.86
2018-03-30T22:10:47.946Z,99473.03
2018-03-30T22:13:15.548Z,99470.81
2018-03-30T22:15:43.178Z,99473.55
2018-03-30T22:18:10.749Z,99475.39
2018-03-30T22:20:38.334Z,99479.58
2018-03-30T22:23:05.933Z,99475.14
2018-03-30T22:25:33.551Z,99471.48
2018-03-30T22:28:01.150Z,99471.16
2018-03-30T22:30:28.731Z,99468.38
2018-03-30T22:32:56.308Z,99467.03
2018-03-30T22:35:23.912Z,99475.58
2018-03-30T22:37:51.486Z,99470.07
2018-03-30T22:40:19.057Z,99468.72
2018-03-30T22:42:46.657Z,99467.20
2018-03-30T22:45:14.254Z,99467.92
2018-03-30T22:47:41.858Z,99465.33
2018-03-30T22:50:09.433Z,99459.95
2018-03-30T22:52:37.038Z,99472.33
2018-03-30T22:55:04.608Z,99473.33
2018-03-30T22:57:32.187Z,99474.28
2018-03-30T22:59:59.786Z,99471.40
2018-03-30T23:02:27.356Z,99469.91
2018-03-30T23:04:54.963Z,99465.16
2018-03-30T23:07:22.540Z,99464.97
2018-03-30T23:09:50.132Z,99462.34
2018-03-30T23:12:17.758Z,99463.50
2018-03-30T23:14:45.371Z,99463.39
2018-03-30T23:17:12.950Z,99455.56
2018-03-30T23:19:40.537Z,99453.98
2018-03-30T23:22:08.103Z,99461.23
2018-03-30T23:24:35.716Z,99461.34
2018-03-30T23:27:03.314Z,99449.23
2018-03-30T23:29:31.143Z,99451.48
2018-03-30T23:31:58.732Z,99445.64
2018-03-30T23:34:26.348Z,99452.43
2018-03-30T23:36:53.940Z,99454.91
2018-03-30T23:39:21.576Z,99461.54
2018-03-30T23:41:49.165Z,99463.89
2018-03-30T23:44:16.769Z,99461.08
2018-03-30T23:46:44.348Z,99465.67
2018-03-30T23:49:11.930Z,99457.94
2018-03-30T23:51:39.545Z,99458.89
2018-03-30T23:54:07.125Z,99464.84
2018-03-30T23:56:34.722Z,99471.94
2018-03-30T23:59:02.318Z,99480.30
